sensor_id;sensor_type;location;lat;lon;timestamp;P1;durP1;ratioP1;P2;durP2;ratioP2
23590;SDS011;11973;52.098;7.582;2022-09-16T00:00:40;2.67;;;0.60;;
23590;SDS011;11973;52.098;7.582;2022-09-16T00:03:07;1.42;;;0.70;;
23590;SDS011;11973;52.098;7.582;2022-09-16T00:05:34;1.02;;;0.93;;
23590;SDS011;11973;52.098;7.582;2022-09-16T00:08:22;0.90;;;0.57;;
23590;SDS011;11973;52.098;7.582;2022-09-16T00:10:48;1.40;;;0.80;;
23590;SDS011;11973;52.098;7.582;2022-09-16T00:13:14;0.68;;;0.68;;
23590;SDS011;11973;52.098;7.582;2022-09-16T00:15:40;1.17;;;0.80;;
23590;SDS011;11973;52.098;7.582;2022-09-16T00:18:08;0.50;;;0.50;;
23590;SDS011;11973;52.098;7.582;2022-09-16T00:20:34;1.77;;;0.77;;
23590;SDS011;11973;52.098;7.582;2022-09-16T00:23:00;0.70;;;0.52;;
23590;SDS011;11973;52.098;7.582;2022-09-16T00:25:26;0.65;;;0.65;;
23590;SDS011;11973;52.098;7.582;2022-09-16T00:27:52;0.52;;;0.52;;
23590;SDS011;11973;52.098;7.582;2022-09-16T00:30:17;0.60;;;0.60;;
23590;SDS011;11973;52.098;7.582;2022-09-16T00:32:43;0.73;;;0.63;;
23590;SDS011;11973;52.098;7.582;2022-09-16T00:35:09;0.50;;;0.50;;
23590;SDS011;11973;52.098;7.582;2022-09-16T00:37:34;0.50;;;0.50;;
23590;SDS011;11973;52.098;7.582;2022-09-16T00:40:00;0.95;;;0.63;;
23590;SDS011;11973;52.098;7.582;2022-09-16T00:42:27;0.50;;;0.45;;
23590;SDS011;11973;52.098;7.582;2022-09-16T00:47:34;1.30;;;0.50;;
23590;SDS011;11973;52.098;7.582;2022-09-16T00:50:11;0.70;;;0.40;;
23590;SDS011;11973;52.098;7.582;2022-09-16T00:52:46;2.95;;;0.70;;
23590;SDS011;11973;52.098;7.582;2022-09-16T00:55:15;1.80;;;0.50;;
23590;SDS011;11973;52.098;7.582;2022-09-16T00:57:45;0.93;;;0.70;;
23590;SDS011;11973;52.098;7.582;2022-09-16T01:00:12;0.60;;;0.60;;
23590;SDS011;11973;52.098;7.582;2022-09-16T01:02:38;0.45;;;0.45;;
23590;SDS011;11973;52.098;7.582;2022-09-16T01:05:09;0.55;;;0.55;;
23590;SDS011;11973;52.098;7.582;2022-09-16T01:07:43;2.03;;;0.70;;
23590;SDS011;11973;52.098;7.582;2022-09-16T01:10:21;0.52;;;0.50;;
23590;SDS011;11973;52.098;7.582;2022-09-16T01:12:49;0.65;;;0.65;;
23590;SDS011;11973;52.098;7.582;2022-09-16T01:15:18;0.50;;;0.50;;
23590;SDS011;11973;52.098;7.582;2022-09-16T01:23:00;0.68;;;0.60;;
23590;SDS011;11973;52.098;7.582;2022-09-16T01:33:56;2.08;;;0.63;;
23590;SDS011;11973;52.098;7.582;2022-09-16T01:36:40;2.20;;;0.70;;
23590;SDS011;11973;52.098;7.582;2022-09-16T01:47:46;4.38;;;0.93;;
23590;SDS011;11973;52.098;7.582;2022-09-16T01:50:32;1.27;;;1.02;;
23590;SDS011;11973;52.098;7.582;2022-09-16T01:55:41;0.70;;;0.70;;
23590;SDS011;11973;52.098;7.582;2022-09-16T01:58:25;1.40;;;0.98;;
23590;SDS011;11973;52.098;7.582;2022-09-16T02:01:04;0.80;;;0.80;;
23590;SDS011;11973;52.098;7.582;2022-09-16T02:03:41;0.77;;;0.77;;
23590;SDS011;11973;52.098;7.582;2022-09-16T02:06:14;0.70;;;0.70;;
23590;SDS011;11973;52.098;7.582;2022-09-16T02:08:56;1.33;;;0.88;;
23590;SDS011;11973;52.098;7.582;2022-09-16T02:11:26;1.70;;;0.82;;
23590;SDS011;11973;52.098;7.582;2022-09-16T02:16:35;0.63;;;0.63;;
23590;SDS011;11973;52.098;7.582;2022-09-16T02:19:14;0.80;;;0.80;;
23590;SDS011;11973;52.098;7.582;2022-09-16T02:21:44;1.65;;;0.98;;
23590;SDS011;11973;52.098;7.582;2022-09-16T02:24:13;1.10;;;1.00;;
23590;SDS011;11973;52.098;7.582;2022-09-16T02:26:43;0.63;;;0.63;;
23590;SDS011;11973;52.098;7.582;2022-09-16T02:29:14;0.70;;;0.65;;
23590;SDS011;11973;52.098;7.582;2022-09-16T02:31:45;0.60;;;0.60;;
23590;SDS011;11973;52.098;7.582;2022-09-16T02:34:16;0.70;;;0.70;;
23590;SDS011;11973;52.098;7.582;2022-09-16T02:36:48;0.63;;;0.63;;
23590;SDS011;11973;52.098;7.582;2022-09-16T02:39:18;0.90;;;0.85;;
23590;SDS011;11973;52.098;7.582;2022-09-16T02:41:50;0.95;;;0.63;;
23590;SDS011;11973;52.098;7.582;2022-09-16T02:44:16;0.98;;;0.90;;
23590;SDS011;11973;52.098;7.582;2022-09-16T02:46:58;0.68;;;0.68;;
23590;SDS011;11973;52.098;7.582;2022-09-16T02:52:18;1.58;;;0.77;;
23590;SDS011;11973;52.098;7.582;2022-09-16T02:55:14;0.90;;;0.90;;
23590;SDS011;11973;52.098;7.582;2022-09-16T02:57:47;0.80;;;0.75;;
23590;SDS011;11973;52.098;7.582;2022-09-16T03:00:14;0.63;;;0.63;;
23590;SDS011;11973;52.098;7.582;2022-09-16T03:02:39;2.88;;;0.80;;
23590;SDS011;11973;52.098;7.582;2022-09-16T03:05:05;4.03;;;0.95;;
23590;SDS011;11973;52.098;7.582;2022-09-16T03:07:31;2.53;;;1.13;;
23590;SDS011;11973;52.098;7.582;2022-09-16T03:09:58;1.08;;;1.08;;
23590;SDS011;11973;52.098;7.582;2022-09-16T03:15:16;1.15;;;1.08;;
23590;SDS011;11973;52.098;7.582;2022-09-16T03:18:04;1.48;;;1.10;;
23590;SDS011;11973;52.098;7.582;2022-09-16T03:26:20;1.77;;;1.67;;
23590;SDS011;11973;52.098;7.582;2022-09-16T03:31:48;1.90;;;1.80;;
23590;SDS011;11973;52.098;7.582;2022-09-16T03:34:34;2.35;;;1.20;;
23590;SDS011;11973;52.098;7.582;2022-09-16T03:37:09;4.82;;;1.63;;
23590;SDS011;11973;52.098;7.582;2022-09-16T03:39:37;1.92;;;1.50;;
23590;SDS011;11973;52.098;7.582;2022-09-16T03:42:04;2.03;;;1.48;;
23590;SDS011;11973;52.098;7.582;2022-09-16T03:44:35;1.60;;;1.48;;
23590;SDS011;11973;52.098;7.582;2022-09-16T03:47:03;1.80;;;1.70;;
23590;SDS011;11973;52.098;7.582;2022-09-16T03:49:30;4.18;;;2.13;;
23590;SDS011;11973;52.098;7.582;2022-09-16T03:51:56;2.00;;;1.73;;
23590;SDS011;11973;52.098;7.582;2022-09-16T03:54:22;1.90;;;1.80;;
23590;SDS011;11973;52.098;7.582;2022-09-16T03:56:48;4.13;;;2.08;;
23590;SDS011;11973;52.098;7.582;2022-09-16T03:59:14;2.50;;;2.40;;
23590;SDS011;11973;52.098;7.582;2022-09-16T04:01:39;2.25;;;2.03;;
23590;SDS011;11973;52.098;7.582;2022-09-16T04:04:05;3.10;;;2.08;;
23590;SDS011;11973;52.098;7.582;2022-09-16T04:06:31;2.53;;;2.38;;
23590;SDS011;11973;52.098;7.582;2022-09-16T04:08:56;2.83;;;2.50;;
23590;SDS011;11973;52.098;7.582;2022-09-16T04:11:25;2.60;;;2.40;;
23590;SDS011;11973;52.098;7.582;2022-09-16T04:13:53;2.95;;;2.75;;
23590;SDS011;11973;52.098;7.582;2022-09-16T05:02:13;2.78;;;1.30;;
23590;SDS011;11973;52.098;7.582;2022-09-16T05:04:39;0.93;;;0.88;;
23590;SDS011;11973;52.098;7.582;2022-09-16T05:07:04;0.90;;;0.90;;
23590;SDS011;11973;52.098;7.582;2022-09-16T05:09:31;2.40;;;1.05;;
23590;SDS011;11973;52.098;7.582;2022-09-16T05:11:56;0.80;;;0.80;;
23590;SDS011;11973;52.098;7.582;2022-09-16T05:14:22;1.98;;;0.88;;
23590;SDS011;11973;52.098;7.582;2022-09-16T05:16:48;1.05;;;0.73;;
23590;SDS011;11973;52.098;7.582;2022-09-16T05:19:14;1.05;;;0.70;;
23590;SDS011;11973;52.098;7.582;2022-09-16T05:21:40;1.20;;;0.93;;
23590;SDS011;11973;52.098;7.582;2022-09-16T05:24:07;0.70;;;0.70;;
23590;SDS011;11973;52.098;7.582;2022-09-16T05:26:36;1.15;;;0.70;;
23590;SDS011;11973;52.098;7.582;2022-09-16T05:29:05;1.05;;;0.63;;
23590;SDS011;11973;52.098;7.582;2022-09-16T05:31:36;0.77;;;0.60;;
23590;SDS011;11973;52.098;7.582;2022-09-16T05:34:10;1.23;;;0.77;;
23590;SDS011;11973;52.098;7.582;2022-09-16T05:36:39;1.70;;;0.70;;
23590;SDS011;11973;52.098;7.582;2022-09-16T05:39:08;1.50;;;0.80;;
23590;SDS011;11973;52.098;7.582;2022-09-16T05:41:35;0.75;;;0.65;;
23590;SDS011;11973;52.098;7.582;2022-09-16T05:44:01;0.80;;;0.80;;
23590;SDS011;11973;52.098;7.582;2022-09-16T05:46:28;0.70;;;0.70;;
23590;SDS011;11973;52.098;7.582;2022-09-16T05:48:54;0.70;;;0.70;;
23590;SDS011;11973;52.098;7.582;2022-09-16T05:51:20;0.90;;;0.70;;
23590;SDS011;11973;52.098;7.582;2022-09-16T05:53:48;1.60;;;0.75;;
23590;SDS011;11973;52.098;7.582;2022-09-16T05:56:15;2.15;;;1.20;;
23590;SDS011;11973;52.098;7.582;2022-09-16T05:58:46;1.42;;;0.80;;
23590;SDS011;11973;52.098;7.582;2022-09-16T06:03:38;0.70;;;0.60;;
23590;SDS011;11973;52.098;7.582;2022-09-16T06:06:08;1.23;;;0.60;;
23590;SDS011;11973;52.098;7.582;2022-09-16T06:08:35;1.85;;;0.82;;
23590;SDS011;11973;52.098;7.582;2022-09-16T06:11:02;0.95;;;0.60;;
23590;SDS011;11973;52.098;7.582;2022-09-16T06:13:30;0.95;;;0.60;;
23590;SDS011;11973;52.098;7.582;2022-09-16T06:15:56;0.68;;;0.68;;
23590;SDS011;11973;52.098;7.582;2022-09-16T06:18:23;0.70;;;0.50;;
23590;SDS011;11973;52.098;7.582;2022-09-16T06:20:50;2.05;;;0.40;;
23590;SDS011;11973;52.098;7.582;2022-09-16T06:23:16;2.25;;;0.50;;
23590;SDS011;11973;52.098;7.582;2022-09-16T06:25:42;0.57;;;0.50;;
23590;SDS011;11973;52.098;7.582;2022-09-16T06:28:08;0.60;;;0.50;;
23590;SDS011;11973;52.098;7.582;2022-09-16T06:30:36;0.77;;;0.77;;
23590;SDS011;11973;52.098;7.582;2022-09-16T06:33:02;0.75;;;0.47;;
23590;SDS011;11973;52.098;7.582;2022-09-16T06:35:28;0.65;;;0.65;;
23590;SDS011;11973;52.098;7.582;2022-09-16T06:37:54;0.60;;;0.60;;
23590;SDS011;11973;52.098;7.582;2022-09-16T06:40:20;1.00;;;0.65;;
23590;SDS011;11973;52.098;7.582;2022-09-16T06:42:46;2.50;;;0.68;;
23590;SDS011;11973;52.098;7.582;2022-09-16T06:45:11;2.22;;;0.80;;
23590;SDS011;11973;52.098;7.582;2022-09-16T06:47:37;0.52;;;0.50;;
23590;SDS011;11973;52.098;7.582;2022-09-16T06:50:03;0.60;;;0.60;;
23590;SDS011;11973;52.098;7.582;2022-09-16T06:52:30;0.60;;;0.60;;
23590;SDS011;11973;52.098;7.582;2022-09-16T06:54:57;0.50;;;0.50;;
23590;SDS011;11973;52.098;7.582;2022-09-16T06:57:23;0.50;;;0.50;;
23590;SDS011;11973;52.098;7.582;2022-09-16T06:59:49;1.42;;;0.57;;
23590;SDS011;11973;52.098;7.582;2022-09-16T07:02:14;1.95;;;0.50;;
23590;SDS011;11973;52.098;7.582;2022-09-16T07:04:40;0.50;;;0.50;;
23590;SDS011;11973;52.098;7.582;2022-09-16T07:07:07;2.13;;;0.60;;
23590;SDS011;11973;52.098;7.582;2022-09-16T07:09:32;1.17;;;0.80;;
23590;SDS011;11973;52.098;7.582;2022-09-16T07:11:59;0.40;;;0.40;;
23590;SDS011;11973;52.098;7.582;2022-09-16T07:14:25;1.17;;;0.50;;
23590;SDS011;11973;52.098;7.582;2022-09-16T07:16:52;0.40;;;0.40;;
23590;SDS011;11973;52.098;7.582;2022-09-16T07:19:18;0.52;;;0.45;;
23590;SDS011;11973;52.098;7.582;2022-09-16T07:21:44;3.83;;;0.50;;
23590;SDS011;11973;52.098;7.582;2022-09-16T07:24:11;0.50;;;0.40;;
23590;SDS011;11973;52.098;7.582;2022-09-16T07:26:38;0.35;;;0.30;;
23590;SDS011;11973;52.098;7.582;2022-09-16T07:29:06;0.30;;;0.30;;
23590;SDS011;11973;52.098;7.582;2022-09-16T07:31:35;1.83;;;0.40;;
23590;SDS011;11973;52.098;7.582;2022-09-16T07:34:02;0.30;;;0.30;;
23590;SDS011;11973;52.098;7.582;2022-09-16T07:36:36;0.40;;;0.40;;
23590;SDS011;11973;52.098;7.582;2022-09-16T07:39:04;0.75;;;0.28;;
23590;SDS011;11973;52.098;7.582;2022-09-16T07:41:48;0.40;;;0.40;;
23590;SDS011;11973;52.098;7.582;2022-09-16T07:44:15;0.50;;;0.50;;
23590;SDS011;11973;52.098;7.582;2022-09-16T07:46:42;0.65;;;0.40;;
23590;SDS011;11973;52.098;7.582;2022-09-16T07:49:09;0.70;;;0.30;;
23590;SDS011;11973;52.098;7.582;2022-09-16T07:51:37;2.83;;;0.43;;
23590;SDS011;11973;52.098;7.582;2022-09-16T07:54:07;0.40;;;0.40;;
23590;SDS011;11973;52.098;7.582;2022-09-16T07:56:36;0.30;;;0.28;;
23590;SDS011;11973;52.098;7.582;2022-09-16T07:59:04;0.40;;;0.35;;
23590;SDS011;11973;52.098;7.582;2022-09-16T08:01:31;1.63;;;0.43;;
23590;SDS011;11973;52.098;7.582;2022-09-16T08:03:59;1.27;;;0.50;;
23590;SDS011;11973;52.098;7.582;2022-09-16T08:06:26;0.32;;;0.32;;
23590;SDS011;11973;52.098;7.582;2022-09-16T08:08:54;0.68;;;0.30;;
23590;SDS011;11973;52.098;7.582;2022-09-16T08:11:21;1.10;;;0.40;;
23590;SDS011;11973;52.098;7.582;2022-09-16T08:13:47;0.82;;;0.50;;
23590;SDS011;11973;52.098;7.582;2022-09-16T08:16:15;1.27;;;0.40;;
23590;SDS011;11973;52.098;7.582;2022-09-16T08:18:42;0.75;;;0.57;;
23590;SDS011;11973;52.098;7.582;2022-09-16T08:21:10;1.75;;;0.52;;
23590;SDS011;11973;52.098;7.582;2022-09-16T08:23:38;2.38;;;0.70;;
23590;SDS011;11973;52.098;7.582;2022-09-16T08:26:05;2.15;;;0.32;;
23590;SDS011;11973;52.098;7.582;2022-09-16T08:28:32;1.17;;;0.60;;
23590;SDS011;11973;52.098;7.582;2022-09-16T08:30:59;0.57;;;0.50;;
23590;SDS011;11973;52.098;7.582;2022-09-16T08:33:25;0.82;;;0.45;;
23590;SDS011;11973;52.098;7.582;2022-09-16T08:36:03;2.42;;;0.60;;
23590;SDS011;11973;52.098;7.582;2022-09-16T08:38:33;3.35;;;0.30;;
23590;SDS011;11973;52.098;7.582;2022-09-16T08:41:03;0.40;;;0.40;;
23590;SDS011;11973;52.098;7.582;2022-09-16T08:46:27;1.60;;;0.55;;
23590;SDS011;11973;52.098;7.582;2022-09-16T08:52:13;1.30;;;0.50;;
23590;SDS011;11973;52.098;7.582;2022-09-16T08:54:59;2.08;;;0.63;;
23590;SDS011;11973;52.098;7.582;2022-09-16T08:57:42;0.98;;;0.90;;
23590;SDS011;11973;52.098;7.582;2022-09-16T09:00:16;1.88;;;0.73;;
23590;SDS011;11973;52.098;7.582;2022-09-16T09:02:50;1.83;;;0.50;;
23590;SDS011;11973;52.098;7.582;2022-09-16T09:05:18;0.65;;;0.40;;
23590;SDS011;11973;52.098;7.582;2022-09-16T09:10:37;1.75;;;0.50;;
23590;SDS011;11973;52.098;7.582;2022-09-16T09:16:14;1.50;;;0.50;;
23590;SDS011;11973;52.098;7.582;2022-09-16T09:18:50;1.77;;;0.50;;
23590;SDS011;11973;52.098;7.582;2022-09-16T09:32:46;3.28;;;0.30;;
23590;SDS011;11973;52.098;7.582;2022-09-16T09:35:36;2.67;;;0.40;;
23590;SDS011;11973;52.098;7.582;2022-09-16T09:41:11;1.42;;;0.40;;
23590;SDS011;11973;52.098;7.582;2022-09-16T09:46:44;1.95;;;0.60;;
23590;SDS011;11973;52.098;7.582;2022-09-16T09:49:12;3.45;;;0.30;;
23590;SDS011;11973;52.098;7.582;2022-09-16T09:51:47;2.08;;;0.50;;
23590;SDS011;11973;52.098;7.582;2022-09-16T09:54:33;4.57;;;0.55;;
23590;SDS011;11973;52.098;7.582;2022-09-16T09:57:01;1.38;;;0.50;;
23590;SDS011;11973;52.098;7.582;2022-09-16T10:00:03;2.63;;;0.50;;
23590;SDS011;11973;52.098;7.582;2022-09-16T10:02:39;1.02;;;0.50;;
23590;SDS011;11973;52.098;7.582;2022-09-16T10:05:26;3.55;;;0.40;;
23590;SDS011;11973;52.098;7.582;2022-09-16T10:07:54;2.17;;;0.50;;
23590;SDS011;11973;52.098;7.582;2022-09-16T10:10:23;1.27;;;0.52;;
23590;SDS011;11973;52.098;7.582;2022-09-16T10:12:51;0.73;;;0.57;;
23590;SDS011;11973;52.098;7.582;2022-09-16T10:15:22;1.85;;;0.52;;
23590;SDS011;11973;52.098;7.582;2022-09-16T10:17:53;1.20;;;0.35;;
23590;SDS011;11973;52.098;7.582;2022-09-16T10:20:27;1.30;;;0.50;;
23590;SDS011;11973;52.098;7.582;2022-09-16T10:23:13;2.13;;;0.40;;
23590;SDS011;11973;52.098;7.582;2022-09-16T10:25:44;0.52;;;0.30;;
23590;SDS011;11973;52.098;7.582;2022-09-16T10:28:18;1.27;;;0.50;;
23590;SDS011;11973;52.098;7.582;2022-09-16T10:30:49;1.85;;;0.32;;
23590;SDS011;11973;52.098;7.582;2022-09-16T10:36:01;1.02;;;0.75;;
23590;SDS011;11973;52.098;7.582;2022-09-16T10:38:38;1.52;;;0.50;;
23590;SDS011;11973;52.098;7.582;2022-09-16T10:41:28;2.15;;;0.50;;
23590;SDS011;11973;52.098;7.582;2022-09-16T10:49:21;0.40;;;0.40;;
23590;SDS011;11973;52.098;7.582;2022-09-16T10:51:51;1.20;;;0.45;;
23590;SDS011;11973;52.098;7.582;2022-09-16T10:54:24;3.40;;;0.50;;
23590;SDS011;11973;52.098;7.582;2022-09-16T10:56:52;1.33;;;0.57;;
23590;SDS011;11973;52.098;7.582;2022-09-16T10:59:18;3.60;;;0.50;;
23590;SDS011;11973;52.098;7.582;2022-09-16T11:08:51;5.20;;;0.40;;
23590;SDS011;11973;52.098;7.582;2022-09-16T11:10:57;1.20;;;0.38;;
23590;SDS011;11973;52.098;7.582;2022-09-16T11:18:48;1.27;;;0.40;;
23590;SDS011;11973;52.098;7.582;2022-09-16T11:29:53;0.93;;;0.28;;
23590;SDS011;11973;52.098;7.582;2022-09-16T11:55:47;0.80;;;0.32;;
23590;SDS011;11973;52.098;7.582;2022-09-16T12:01:18;3.20;;;0.40;;
23590;SDS011;11973;52.098;7.582;2022-09-16T12:04:09;1.63;;;0.40;;
23590;SDS011;11973;52.098;7.582;2022-09-16T12:06:39;0.52;;;0.52;;
23590;SDS011;11973;52.098;7.582;2022-09-16T12:09:25;1.50;;;0.50;;
23590;SDS011;11973;52.098;7.582;2022-09-16T12:12:08;1.85;;;0.43;;
23590;SDS011;11973;52.098;7.582;2022-09-16T12:14:42;0.85;;;0.40;;
23590;SDS011;11973;52.098;7.582;2022-09-16T12:17:20;1.45;;;0.57;;
23590;SDS011;11973;52.098;7.582;2022-09-16T12:22:35;1.70;;;0.52;;
23590;SDS011;11973;52.098;7.582;2022-09-16T12:25:29;2.67;;;0.40;;
23590;SDS011;11973;52.098;7.582;2022-09-16T12:28:04;1.13;;;0.50;;
23590;SDS011;11973;52.098;7.582;2022-09-16T12:30:44;2.45;;;0.38;;
23590;SDS011;11973;52.098;7.582;2022-09-16T12:33:23;3.67;;;0.50;;
23590;SDS011;11973;52.098;7.582;2022-09-16T12:36:13;1.35;;;0.32;;
23590;SDS011;11973;52.098;7.582;2022-09-16T12:38:42;2.85;;;0.35;;
23590;SDS011;11973;52.098;7.582;2022-09-16T12:41:27;0.57;;;0.50;;
23590;SDS011;11973;52.098;7.582;2022-09-16T13:00:20;1.27;;;0.50;;
23590;SDS011;11973;52.098;7.582;2022-09-16T13:02:54;1.35;;;0.68;;
23590;SDS011;11973;52.098;7.582;2022-09-16T13:05:27;1.88;;;0.50;;
23590;SDS011;11973;52.098;7.582;2022-09-16T13:07:56;3.90;;;0.90;;
23590;SDS011;11973;52.098;7.582;2022-09-16T13:10:35;2.10;;;0.60;;
23590;SDS011;11973;52.098;7.582;2022-09-16T13:13:04;2.45;;;0.60;;
23590;SDS011;11973;52.098;7.582;2022-09-16T13:15:35;1.50;;;0.82;;
23590;SDS011;11973;52.098;7.582;2022-09-16T13:18:06;0.85;;;0.60;;
23590;SDS011;11973;52.098;7.582;2022-09-16T13:20:33;0.60;;;0.50;;
23590;SDS011;11973;52.098;7.582;2022-09-16T13:23:12;2.55;;;0.75;;
23590;SDS011;11973;52.098;7.582;2022-09-16T13:25:55;2.88;;;0.60;;
23590;SDS011;11973;52.098;7.582;2022-09-16T13:34:00;3.67;;;0.75;;
23590;SDS011;11973;52.098;7.582;2022-09-16T13:36:36;5.20;;;0.50;;
23590;SDS011;11973;52.098;7.582;2022-09-16T13:39:04;2.15;;;0.57;;
23590;SDS011;11973;52.098;7.582;2022-09-16T13:41:35;12.25;;;1.75;;
23590;SDS011;11973;52.098;7.582;2022-09-16T13:44:02;4.75;;;0.80;;
23590;SDS011;11973;52.098;7.582;2022-09-16T13:46:47;10.13;;;1.45;;
23590;SDS011;11973;52.098;7.582;2022-09-16T13:49:20;1.83;;;0.93;;
23590;SDS011;11973;52.098;7.582;2022-09-16T13:51:49;3.97;;;0.50;;
23590;SDS011;11973;52.098;7.582;2022-09-16T13:54:26;3.72;;;0.85;;
23590;SDS011;11973;52.098;7.582;2022-09-16T14:05:04;1.90;;;0.70;;
23590;SDS011;11973;52.098;7.582;2022-09-16T14:07:45;1.33;;;0.50;;
23590;SDS011;11973;52.098;7.582;2022-09-16T14:15:36;2.83;;;0.50;;
23590;SDS011;11973;52.098;7.582;2022-09-16T14:18:06;0.70;;;0.70;;
23590;SDS011;11973;52.098;7.582;2022-09-16T14:20:37;5.57;;;0.45;;
23590;SDS011;11973;52.098;7.582;2022-09-16T14:23:17;1.13;;;0.57;;
23590;SDS011;11973;52.098;7.582;2022-09-16T14:25:44;3.20;;;0.80;;
23590;SDS011;11973;52.098;7.582;2022-09-16T14:28:17;1.42;;;0.60;;
23590;SDS011;11973;52.098;7.582;2022-09-16T14:30:50;5.55;;;0.80;;
23590;SDS011;11973;52.098;7.582;2022-09-16T14:33:23;1.10;;;0.50;;
23590;SDS011;11973;52.098;7.582;2022-09-16T14:35:56;4.78;;;0.75;;
23590;SDS011;11973;52.098;7.582;2022-09-16T14:38:34;2.47;;;0.40;;
23590;SDS011;11973;52.098;7.582;2022-09-16T14:41:09;1.02;;;0.55;;
23590;SDS011;11973;52.098;7.582;2022-09-16T14:43:43;3.33;;;0.40;;
23590;SDS011;11973;52.098;7.582;2022-09-16T14:46:09;0.55;;;0.40;;
23590;SDS011;11973;52.098;7.582;2022-09-16T14:48:36;1.95;;;0.38;;
23590;SDS011;11973;52.098;7.582;2022-09-16T14:51:08;6.18;;;1.88;;
23590;SDS011;11973;52.098;7.582;2022-09-16T14:53:40;1.65;;;0.60;;
23590;SDS011;11973;52.098;7.582;2022-09-16T14:56:14;0.52;;;0.47;;
23590;SDS011;11973;52.098;7.582;2022-09-16T14:58:44;4.38;;;0.50;;
23590;SDS011;11973;52.098;7.582;2022-09-16T15:01:12;1.75;;;0.68;;
23590;SDS011;11973;52.098;7.582;2022-09-16T15:04:25;1.67;;;0.70;;
23590;SDS011;11973;52.098;7.582;2022-09-16T15:06:38;1.40;;;0.50;;
23590;SDS011;11973;52.098;7.582;2022-09-16T15:09:19;0.22;;;0.22;;
23590;SDS011;11973;52.098;7.582;2022-09-16T15:11:53;0.70;;;0.70;;
23590;SDS011;11973;52.098;7.582;2022-09-16T15:14:21;1.20;;;0.40;;
23590;SDS011;11973;52.098;7.582;2022-09-16T15:16:51;1.65;;;0.40;;
23590;SDS011;11973;52.098;7.582;2022-09-16T15:19:24;0.30;;;0.30;;
23590;SDS011;11973;52.098;7.582;2022-09-16T15:21:54;3.55;;;0.38;;
23590;SDS011;11973;52.098;7.582;2022-09-16T15:24:25;1.40;;;0.40;;
23590;SDS011;11973;52.098;7.582;2022-09-16T15:26:55;1.40;;;0.40;;
23590;SDS011;11973;52.098;7.582;2022-09-16T15:31:48;0.50;;;0.50;;
23590;SDS011;11973;52.098;7.582;2022-09-16T15:36:50;0.40;;;0.40;;
23590;SDS011;11973;52.098;7.582;2022-09-16T15:39:22;0.75;;;0.70;;
23590;SDS011;11973;52.098;7.582;2022-09-16T15:42:04;0.40;;;0.40;;
23590;SDS011;11973;52.098;7.582;2022-09-16T15:44:45;0.82;;;0.40;;
23590;SDS011;11973;52.098;7.582;2022-09-16T15:47:25;0.57;;;0.30;;
23590;SDS011;11973;52.098;7.582;2022-09-16T15:50:03;1.00;;;0.40;;
23590;SDS011;11973;52.098;7.582;2022-09-16T15:52:31;2.45;;;0.50;;
23590;SDS011;11973;52.098;7.582;2022-09-16T15:55:01;0.47;;;0.28;;
23590;SDS011;11973;52.098;7.582;2022-09-16T15:57:33;2.15;;;0.45;;
23590;SDS011;11973;52.098;7.582;2022-09-16T16:00:05;2.15;;;0.60;;
23590;SDS011;11973;52.098;7.582;2022-09-16T16:05:23;2.05;;;0.35;;
23590;SDS011;11973;52.098;7.582;2022-09-16T16:07:59;2.92;;;0.75;;
23590;SDS011;11973;52.098;7.582;2022-09-16T16:10:32;1.90;;;0.40;;
23590;SDS011;11973;52.098;7.582;2022-09-16T16:13:02;2.75;;;0.50;;
23590;SDS011;11973;52.098;7.582;2022-09-16T16:15:32;2.00;;;0.60;;
23590;SDS011;11973;52.098;7.582;2022-09-16T16:18:02;0.80;;;0.40;;
23590;SDS011;11973;52.098;7.582;2022-09-16T16:20:30;3.30;;;0.68;;
23590;SDS011;11973;52.098;7.582;2022-09-16T16:22:58;3.40;;;0.30;;
23590;SDS011;11973;52.098;7.582;2022-09-16T16:25:24;1.75;;;0.75;;
23590;SDS011;11973;52.098;7.582;2022-09-16T16:27:51;2.65;;;0.60;;
23590;SDS011;11973;52.098;7.582;2022-09-16T16:30:16;2.15;;;0.40;;
23590;SDS011;11973;52.098;7.582;2022-09-16T16:32:43;1.13;;;0.60;;
23590;SDS011;11973;52.098;7.582;2022-09-16T16:35:09;2.33;;;0.60;;
23590;SDS011;11973;52.098;7.582;2022-09-16T16:37:35;2.90;;;0.80;;
23590;SDS011;11973;52.098;7.582;2022-09-16T16:40:02;2.33;;;0.70;;
23590;SDS011;11973;52.098;7.582;2022-09-16T16:42:29;3.25;;;0.70;;
23590;SDS011;11973;52.098;7.582;2022-09-16T16:44:55;2.00;;;0.70;;
23590;SDS011;11973;52.098;7.582;2022-09-16T16:47:20;1.98;;;0.60;;
23590;SDS011;11973;52.098;7.582;2022-09-16T16:49:46;3.05;;;0.57;;
23590;SDS011;11973;52.098;7.582;2022-09-16T16:52:12;3.50;;;0.50;;
23590;SDS011;11973;52.098;7.582;2022-09-16T16:54:38;5.03;;;0.60;;
23590;SDS011;11973;52.098;7.582;2022-09-16T16:57:07;7.05;;;1.00;;
23590;SDS011;11973;52.098;7.582;2022-09-16T16:59:33;2.45;;;1.02;;
23590;SDS011;11973;52.098;7.582;2022-09-16T17:01:59;4.70;;;1.60;;
23590;SDS011;11973;52.098;7.582;2022-09-16T17:04:24;2.97;;;1.02;;
23590;SDS011;11973;52.098;7.582;2022-09-16T17:06:50;2.83;;;0.93;;
23590;SDS011;11973;52.098;7.582;2022-09-16T17:09:16;2.70;;;0.70;;
23590;SDS011;11973;52.098;7.582;2022-09-16T17:11:49;1.77;;;0.73;;
23590;SDS011;11973;52.098;7.582;2022-09-16T17:14:15;6.15;;;1.02;;
23590;SDS011;11973;52.098;7.582;2022-09-16T17:16:41;8.50;;;1.95;;
23590;SDS011;11973;52.098;7.582;2022-09-16T17:19:08;4.68;;;1.10;;
23590;SDS011;11973;52.098;7.582;2022-09-16T17:21:34;7.07;;;1.20;;
23590;SDS011;11973;52.098;7.582;2022-09-16T17:24:01;1.63;;;1.30;;
23590;SDS011;11973;52.098;7.582;2022-09-16T17:26:27;2.45;;;1.10;;
23590;SDS011;11973;52.098;7.582;2022-09-16T17:28:53;2.05;;;1.33;;
23590;SDS011;11973;52.098;7.582;2022-09-16T17:31:25;2.05;;;1.00;;
23590;SDS011;11973;52.098;7.582;2022-09-16T17:33:58;11.73;;;3.60;;
23590;SDS011;11973;52.098;7.582;2022-09-16T17:36:30;2.67;;;1.15;;
23590;SDS011;11973;52.098;7.582;2022-09-16T17:39:00;3.90;;;1.20;;
23590;SDS011;11973;52.098;7.582;2022-09-16T17:41:29;35.05;;;1.67;;
23590;SDS011;11973;52.098;7.582;2022-09-16T17:43:56;8.05;;;1.45;;
23590;SDS011;11973;52.098;7.582;2022-09-16T17:46:23;1.98;;;1.00;;
23590;SDS011;11973;52.098;7.582;2022-09-16T17:49:01;5.95;;;1.42;;
23590;SDS011;11973;52.098;7.582;2022-09-16T17:51:29;7.78;;;1.50;;
23590;SDS011;11973;52.098;7.582;2022-09-16T17:53:56;3.50;;;1.30;;
23590;SDS011;11973;52.098;7.582;2022-09-16T17:56:22;4.55;;;1.23;;
23590;SDS011;11973;52.098;7.582;2022-09-16T17:58:49;4.20;;;0.98;;
23590;SDS011;11973;52.098;7.582;2022-09-16T18:01:18;4.45;;;1.08;;
23590;SDS011;11973;52.098;7.582;2022-09-16T18:03:45;2.20;;;0.85;;
23590;SDS011;11973;52.098;7.582;2022-09-16T18:06:17;2.80;;;0.90;;
23590;SDS011;11973;52.098;7.582;2022-09-16T18:08:46;2.10;;;0.90;;
23590;SDS011;11973;52.098;7.582;2022-09-16T18:11:13;4.32;;;0.95;;
23590;SDS011;11973;52.098;7.582;2022-09-16T18:13:40;2.72;;;1.00;;
23590;SDS011;11973;52.098;7.582;2022-09-16T18:16:10;3.80;;;1.10;;
23590;SDS011;11973;52.098;7.582;2022-09-16T18:18:38;1.00;;;0.60;;
23590;SDS011;11973;52.098;7.582;2022-09-16T18:21:06;1.15;;;0.75;;
23590;SDS011;11973;52.098;7.582;2022-09-16T18:23:33;2.58;;;0.80;;
23590;SDS011;11973;52.098;7.582;2022-09-16T18:26:03;1.55;;;0.65;;
23590;SDS011;11973;52.098;7.582;2022-09-16T18:28:30;0.40;;;0.40;;
23590;SDS011;11973;52.098;7.582;2022-09-16T18:31:00;2.15;;;0.70;;
23590;SDS011;11973;52.098;7.582;2022-09-16T18:33:27;2.10;;;0.60;;
23590;SDS011;11973;52.098;7.582;2022-09-16T18:35:56;1.48;;;0.52;;
23590;SDS011;11973;52.098;7.582;2022-09-16T18:38:24;0.60;;;0.60;;
23590;SDS011;11973;52.098;7.582;2022-09-16T18:40:49;0.30;;;0.28;;
23590;SDS011;11973;52.098;7.582;2022-09-16T18:43:16;1.48;;;0.50;;
23590;SDS011;11973;52.098;7.582;2022-09-16T18:45:42;0.57;;;0.30;;
23590;SDS011;11973;52.098;7.582;2022-09-16T18:48:08;1.05;;;0.30;;
23590;SDS011;11973;52.098;7.582;2022-09-16T18:50:34;0.40;;;0.40;;